sensor_id;sensor_type;location;lat;lon;timestamp;P1;durP1;ratioP1;P2;durP2;ratioP2
45936;SDS011;31649;46.510;6.498;2022-08-01T00:01:04;1.42;;;1.20;;
45936;SDS011;31649;46.510;6.498;2022-08-01T00:03:29;1.30;;;1.20;;
45936;SDS011;31649;46.510;6.498;2022-08-01T00:05:55;2.42;;;1.27;;
45936;SDS011;31649;46.510;6.498;2022-08-01T00:08:20;1.58;;;1.48;;
45936;SDS011;31649;46.510;6.498;2022-08-01T00:10:45;1.13;;;1.02;;
45936;SDS011;31649;46.510;6.498;2022-08-01T00:13:11;3.63;;;1.67;;
45936;SDS011;31649;46.510;6.498;2022-08-01T00:15:36;2.63;;;1.60;;
45936;SDS011;31649;46.510;6.498;2022-08-01T00:18:01;2.65;;;1.30;;
45936;SDS011;31649;46.510;6.498;2022-08-01T00:20:27;2.53;;;1.30;;
45936;SDS011;31649;46.510;6.498;2022-08-01T00:22:52;5.28;;;1.27;;
45936;SDS011;31649;46.510;6.498;2022-08-01T00:25:18;1.65;;;1.55;;
45936;SDS011;31649;46.510;6.498;2022-08-01T00:27:43;3.10;;;1.45;;
45936;SDS011;31649;46.510;6.498;2022-08-01T00:30:08;4.78;;;1.27;;
45936;SDS011;31649;46.510;6.498;2022-08-01T00:32:34;0.88;;;0.80;;
45936;SDS011;31649;46.510;6.498;2022-08-01T00:34:59;2.63;;;1.00;;
45936;SDS011;31649;46.510;6.498;2022-08-01T00:37:25;1.20;;;1.10;;
45936;SDS011;31649;46.510;6.498;2022-08-01T00:39:50;1.52;;;1.08;;
45936;SDS011;31649;46.510;6.498;2022-08-01T00:42:16;2.13;;;1.65;;
45936;SDS011;31649;46.510;6.498;2022-08-01T00:44:41;4.30;;;1.55;;
45936;SDS011;31649;46.510;6.498;2022-08-01T00:47:06;3.03;;;1.13;;
45936;SDS011;31649;46.510;6.498;2022-08-01T00:49:32;1.40;;;1.10;;
45936;SDS011;31649;46.510;6.498;2022-08-01T00:51:58;1.25;;;1.15;;
45936;SDS011;31649;46.510;6.498;2022-08-01T00:54:24;0.98;;;0.98;;
45936;SDS011;31649;46.510;6.498;2022-08-01T00:56:51;3.58;;;1.10;;
45936;SDS011;31649;46.510;6.498;2022-08-01T00:59:17;1.80;;;1.02;;
45936;SDS011;31649;46.510;6.498;2022-08-01T01:01:43;2.78;;;0.95;;
45936;SDS011;31649;46.510;6.498;2022-08-01T01:04:08;1.15;;;0.85;;
45936;SDS011;31649;46.510;6.498;2022-08-01T01:09:23;3.90;;;1.00;;
45936;SDS011;31649;46.510;6.498;2022-08-01T01:15:00;1.42;;;0.70;;
45936;SDS011;31649;46.510;6.498;2022-08-01T01:20:01;1.10;;;1.00;;
45936;SDS011;31649;46.510;6.498;2022-08-01T01:25:54;1.20;;;1.10;;
45936;SDS011;31649;46.510;6.498;2022-08-01T01:31:40;1.20;;;0.98;;
45936;SDS011;31649;46.510;6.498;2022-08-01T01:34:09;2.15;;;0.85;;
45936;SDS011;31649;46.510;6.498;2022-08-01T01:36:37;0.75;;;0.68;;
45936;SDS011;31649;46.510;6.498;2022-08-01T01:39:05;4.18;;;1.00;;
45936;SDS011;31649;46.510;6.498;2022-08-01T01:41:32;1.65;;;0.98;;
45936;SDS011;31649;46.510;6.498;2022-08-01T01:43:59;2.17;;;0.82;;
45936;SDS011;31649;46.510;6.498;2022-08-01T01:46:26;1.02;;;0.90;;
45936;SDS011;31649;46.510;6.498;2022-08-01T01:48:55;1.42;;;0.93;;
45936;SDS011;31649;46.510;6.498;2022-08-01T01:51:24;1.23;;;1.13;;
45936;SDS011;31649;46.510;6.498;2022-08-01T01:53:52;3.90;;;1.10;;
45936;SDS011;31649;46.510;6.498;2022-08-01T01:56:19;1.23;;;1.00;;
45936;SDS011;31649;46.510;6.498;2022-08-01T01:58:48;3.85;;;1.23;;
45936;SDS011;31649;46.510;6.498;2022-08-01T02:01:18;1.42;;;1.30;;
45936;SDS011;31649;46.510;6.498;2022-08-01T02:03:46;1.50;;;1.23;;
45936;SDS011;31649;46.510;6.498;2022-08-01T02:06:14;2.92;;;1.30;;
45936;SDS011;31649;46.510;6.498;2022-08-01T02:08:41;5.57;;;1.13;;
45936;SDS011;31649;46.510;6.498;2022-08-01T02:11:08;1.92;;;1.23;;
45936;SDS011;31649;46.510;6.498;2022-08-01T02:13:43;2.35;;;1.33;;
45936;SDS011;31649;46.510;6.498;2022-08-01T02:16:13;2.53;;;1.15;;
45936;SDS011;31649;46.510;6.498;2022-08-01T02:18:40;1.42;;;1.33;;
45936;SDS011;31649;46.510;6.498;2022-08-01T02:21:08;1.52;;;1.02;;
45936;SDS011;31649;46.510;6.498;2022-08-01T02:23:36;1.70;;;1.35;;
45936;SDS011;31649;46.510;6.498;2022-08-01T02:26:05;2.20;;;1.10;;
45936;SDS011;31649;46.510;6.498;2022-08-01T02:28:36;1.63;;;1.10;;
45936;SDS011;31649;46.510;6.498;2022-08-01T02:31:06;0.98;;;0.90;;
45936;SDS011;31649;46.510;6.498;2022-08-01T02:33:40;3.13;;;1.10;;
45936;SDS011;31649;46.510;6.498;2022-08-01T02:36:08;1.35;;;0.90;;
45936;SDS011;31649;46.510;6.498;2022-08-01T02:38:37;2.55;;;1.30;;
45936;SDS011;31649;46.510;6.498;2022-08-01T02:41:09;2.05;;;0.88;;
45936;SDS011;31649;46.510;6.498;2022-08-01T02:43:38;1.23;;;0.93;;
45936;SDS011;31649;46.510;6.498;2022-08-01T02:46:08;2.88;;;1.40;;
45936;SDS011;31649;46.510;6.498;2022-08-01T02:48:41;0.98;;;0.90;;
45936;SDS011;31649;46.510;6.498;2022-08-01T02:51:07;2.15;;;1.63;;
45936;SDS011;31649;46.510;6.498;2022-08-01T02:53:36;1.20;;;1.10;;
45936;SDS011;31649;46.510;6.498;2022-08-01T02:56:05;1.67;;;1.02;;
45936;SDS011;31649;46.510;6.498;2022-08-01T02:58:33;2.13;;;1.20;;
45936;SDS011;31649;46.510;6.498;2022-08-01T03:01:01;1.33;;;1.20;;
45936;SDS011;31649;46.510;6.498;2022-08-01T03:03:27;1.10;;;1.00;;
45936;SDS011;31649;46.510;6.498;2022-08-01T03:05:54;1.10;;;0.85;;
45936;SDS011;31649;46.510;6.498;2022-08-01T03:08:20;2.65;;;1.20;;
45936;SDS011;31649;46.510;6.498;2022-08-01T03:10:47;2.35;;;0.85;;
45936;SDS011;31649;46.510;6.498;2022-08-01T03:13:15;1.60;;;1.15;;
45936;SDS011;31649;46.510;6.498;2022-08-01T03:15:41;2.17;;;1.27;;
45936;SDS011;31649;46.510;6.498;2022-08-01T03:18:09;1.00;;;1.00;;
45936;SDS011;31649;46.510;6.498;2022-08-01T03:20:36;0.95;;;0.95;;
45936;SDS011;31649;46.510;6.498;2022-08-01T03:23:03;3.10;;;0.95;;
45936;SDS011;31649;46.510;6.498;2022-08-01T03:25:31;5.55;;;1.20;;
45936;SDS011;31649;46.510;6.498;2022-08-01T03:28:01;1.40;;;1.20;;
45936;SDS011;31649;46.510;6.498;2022-08-01T03:30:29;2.92;;;1.00;;
45936;SDS011;31649;46.510;6.498;2022-08-01T03:32:56;1.17;;;1.08;;
45936;SDS011;31649;46.510;6.498;2022-08-01T03:35:22;2.85;;;1.10;;
45936;SDS011;31649;46.510;6.498;2022-08-01T03:37:52;1.05;;;0.95;;
45936;SDS011;31649;46.510;6.498;2022-08-01T03:40:22;2.72;;;1.00;;
45936;SDS011;31649;46.510;6.498;2022-08-01T03:42:52;3.85;;;0.98;;
45936;SDS011;31649;46.510;6.498;2022-08-01T03:45:22;1.55;;;1.10;;
45936;SDS011;31649;46.510;6.498;2022-08-01T03:47:52;3.15;;;1.35;;
45936;SDS011;31649;46.510;6.498;2022-08-01T03:50:24;4.25;;;1.20;;
45936;SDS011;31649;46.510;6.498;2022-08-01T03:52:50;1.63;;;1.20;;
45936;SDS011;31649;46.510;6.498;2022-08-01T03:55:17;3.03;;;1.50;;
45936;SDS011;31649;46.510;6.498;2022-08-01T03:57:44;1.33;;;1.15;;
45936;SDS011;31649;46.510;6.498;2022-08-01T04:00:11;3.00;;;1.40;;
45936;SDS011;31649;46.510;6.498;2022-08-01T04:02:36;3.63;;;1.27;;
45936;SDS011;31649;46.510;6.498;2022-08-01T04:05:03;1.40;;;1.15;;
45936;SDS011;31649;46.510;6.498;2022-08-01T04:07:30;1.60;;;1.35;;
45936;SDS011;31649;46.510;6.498;2022-08-01T04:10:00;1.63;;;1.20;;
45936;SDS011;31649;46.510;6.498;2022-08-01T04:12:26;3.28;;;1.20;;
45936;SDS011;31649;46.510;6.498;2022-08-01T04:14:52;0.80;;;0.80;;
45936;SDS011;31649;46.510;6.498;2022-08-01T04:17:17;1.77;;;1.10;;
45936;SDS011;31649;46.510;6.498;2022-08-01T04:19:43;1.42;;;1.08;;
45936;SDS011;31649;46.510;6.498;2022-08-01T04:22:10;3.88;;;1.17;;
45936;SDS011;31649;46.510;6.498;2022-08-01T04:24:38;2.00;;;1.13;;
45936;SDS011;31649;46.510;6.498;2022-08-01T04:27:05;3.25;;;1.42;;
45936;SDS011;31649;46.510;6.498;2022-08-01T04:29:38;2.15;;;1.48;;
45936;SDS011;31649;46.510;6.498;2022-08-01T04:32:04;2.28;;;0.95;;
45936;SDS011;31649;46.510;6.498;2022-08-01T04:34:34;4.32;;;1.50;;
45936;SDS011;31649;46.510;6.498;2022-08-01T04:37:03;2.17;;;1.48;;
45936;SDS011;31649;46.510;6.498;2022-08-01T04:39:31;4.47;;;1.00;;
45936;SDS011;31649;46.510;6.498;2022-08-01T04:42:10;3.70;;;1.48;;
45936;SDS011;31649;46.510;6.498;2022-08-01T04:44:47;2.10;;;1.00;;
45936;SDS011;31649;46.510;6.498;2022-08-01T04:47:23;2.40;;;1.38;;
45936;SDS011;31649;46.510;6.498;2022-08-01T04:49:59;1.23;;;1.13;;
45936;SDS011;31649;46.510;6.498;2022-08-01T04:52:43;4.68;;;1.52;;
45936;SDS011;31649;46.510;6.498;2022-08-01T04:55:20;2.13;;;1.13;;
45936;SDS011;31649;46.510;6.498;2022-08-01T04:57:54;1.10;;;1.00;;
45936;SDS011;31649;46.510;6.498;2022-08-01T05:00:26;1.55;;;1.25;;
45936;SDS011;31649;46.510;6.498;2022-08-01T05:02:53;6.35;;;1.20;;
45936;SDS011;31649;46.510;6.498;2022-08-01T05:05:18;1.20;;;1.10;;
45936;SDS011;31649;46.510;6.498;2022-08-01T05:07:45;3.78;;;1.20;;
45936;SDS011;31649;46.510;6.498;2022-08-01T05:10:11;1.48;;;1.38;;
45936;SDS011;31649;46.510;6.498;2022-08-01T05:12:37;1.92;;;1.45;;
45936;SDS011;31649;46.510;6.498;2022-08-01T05:15:02;3.95;;;1.35;;
45936;SDS011;31649;46.510;6.498;2022-08-01T05:17:28;1.42;;;1.27;;
45936;SDS011;31649;46.510;6.498;2022-08-01T05:19:53;1.50;;;1.10;;
45936;SDS011;31649;46.510;6.498;2022-08-01T05:22:19;2.63;;;1.10;;
45936;SDS011;31649;46.510;6.498;2022-08-01T05:24:44;2.08;;;1.35;;
45936;SDS011;31649;46.510;6.498;2022-08-01T05:27:11;3.40;;;1.02;;
45936;SDS011;31649;46.510;6.498;2022-08-01T05:29:36;1.65;;;1.13;;
45936;SDS011;31649;46.510;6.498;2022-08-01T05:32:03;2.65;;;1.20;;
45936;SDS011;31649;46.510;6.498;2022-08-01T05:34:38;3.95;;;1.23;;
45936;SDS011;31649;46.510;6.498;2022-08-01T05:37:14;1.92;;;1.75;;
45936;SDS011;31649;46.510;6.498;2022-08-01T05:39:49;4.07;;;1.63;;
45936;SDS011;31649;46.510;6.498;2022-08-01T05:42:26;2.65;;;1.33;;
45936;SDS011;31649;46.510;6.498;2022-08-01T05:45:02;1.30;;;1.20;;
45936;SDS011;31649;46.510;6.498;2022-08-01T05:47:39;1.88;;;1.30;;
45936;SDS011;31649;46.510;6.498;2022-08-01T05:50:20;1.38;;;1.27;;
45936;SDS011;31649;46.510;6.498;2022-08-01T05:52:55;2.92;;;1.80;;
45936;SDS011;31649;46.510;6.498;2022-08-01T05:55:29;3.47;;;1.58;;
45936;SDS011;31649;46.510;6.498;2022-08-01T05:58:06;1.17;;;1.10;;
45936;SDS011;31649;46.510;6.498;2022-08-01T06:00:41;2.15;;;1.30;;
45936;SDS011;31649;46.510;6.498;2022-08-01T06:03:16;4.05;;;1.27;;
45936;SDS011;31649;46.510;6.498;2022-08-01T06:05:54;3.95;;;1.67;;
45936;SDS011;31649;46.510;6.498;2022-08-01T06:08:30;1.23;;;1.13;;
45936;SDS011;31649;46.510;6.498;2022-08-01T06:11:06;2.45;;;1.58;;
45936;SDS011;31649;46.510;6.498;2022-08-01T06:13:44;3.20;;;1.40;;
45936;SDS011;31649;46.510;6.498;2022-08-01T06:16:13;2.53;;;1.30;;
45936;SDS011;31649;46.510;6.498;2022-08-01T06:18:49;2.03;;;1.42;;
45936;SDS011;31649;46.510;6.498;2022-08-01T06:21:25;4.32;;;1.77;;
45936;SDS011;31649;46.510;6.498;2022-08-01T06:24:01;1.50;;;1.30;;
45936;SDS011;31649;46.510;6.498;2022-08-01T06:26:38;3.20;;;1.63;;
45936;SDS011;31649;46.510;6.498;2022-08-01T06:29:13;1.40;;;1.30;;
45936;SDS011;31649;46.510;6.498;2022-08-01T06:31:43;1.60;;;1.30;;
45936;SDS011;31649;46.510;6.498;2022-08-01T06:34:09;1.52;;;1.42;;
45936;SDS011;31649;46.510;6.498;2022-08-01T06:36:34;1.88;;;1.30;;
45936;SDS011;31649;46.510;6.498;2022-08-01T06:38:59;3.22;;;1.40;;
45936;SDS011;31649;46.510;6.498;2022-08-01T06:41:25;1.38;;;1.27;;
45936;SDS011;31649;46.510;6.498;2022-08-01T06:43:50;2.45;;;1.65;;
45936;SDS011;31649;46.510;6.498;2022-08-01T06:46:15;2.17;;;1.40;;
45936;SDS011;31649;46.510;6.498;2022-08-01T06:48:41;1.77;;;1.40;;
45936;SDS011;31649;46.510;6.498;2022-08-01T06:51:07;1.63;;;1.52;;
45936;SDS011;31649;46.510;6.498;2022-08-01T06:53:33;4.80;;;1.30;;
45936;SDS011;31649;46.510;6.498;2022-08-01T06:56:00;2.45;;;1.52;;
45936;SDS011;31649;46.510;6.498;2022-08-01T06:58:26;2.10;;;1.73;;
45936;SDS011;31649;46.510;6.498;2022-08-01T07:00:51;1.95;;;1.80;;
45936;SDS011;31649;46.510;6.498;2022-08-01T07:03:16;4.57;;;1.73;;
45936;SDS011;31649;46.510;6.498;2022-08-01T07:05:42;2.10;;;1.42;;
45936;SDS011;31649;46.510;6.498;2022-08-01T07:08:07;1.67;;;1.58;;
45936;SDS011;31649;46.510;6.498;2022-08-01T07:10:33;1.50;;;1.40;;
45936;SDS011;31649;46.510;6.498;2022-08-01T07:12:58;4.25;;;1.40;;
45936;SDS011;31649;46.510;6.498;2022-08-01T07:15:23;3.45;;;1.33;;
45936;SDS011;31649;46.510;6.498;2022-08-01T07:17:51;2.40;;;1.88;;
45936;SDS011;31649;46.510;6.498;2022-08-01T07:20:17;1.63;;;1.30;;
45936;SDS011;31649;46.510;6.498;2022-08-01T07:22:42;2.25;;;1.88;;
45936;SDS011;31649;46.510;6.498;2022-08-01T07:25:08;1.50;;;1.40;;
45936;SDS011;31649;46.510;6.498;2022-08-01T07:27:36;2.30;;;1.92;;
45936;SDS011;31649;46.510;6.498;2022-08-01T07:30:02;1.80;;;1.65;;
45936;SDS011;31649;46.510;6.498;2022-08-01T07:32:29;2.50;;;1.60;;
45936;SDS011;31649;46.510;6.498;2022-08-01T07:34:54;2.35;;;2.15;;
45936;SDS011;31649;46.510;6.498;2022-08-01T07:37:20;2.70;;;1.65;;
45936;SDS011;31649;46.510;6.498;2022-08-01T07:39:46;1.73;;;1.52;;
45936;SDS011;31649;46.510;6.498;2022-08-01T07:42:11;4.53;;;2.03;;
45936;SDS011;31649;46.510;6.498;2022-08-01T07:44:36;2.72;;;1.65;;
45936;SDS011;31649;46.510;6.498;2022-08-01T07:47:02;1.52;;;1.30;;
45936;SDS011;31649;46.510;6.498;2022-08-01T07:49:28;1.67;;;1.58;;
45936;SDS011;31649;46.510;6.498;2022-08-01T07:51:54;2.05;;;1.58;;
45936;SDS011;31649;46.510;6.498;2022-08-01T07:54:19;1.95;;;1.80;;
45936;SDS011;31649;46.510;6.498;2022-08-01T07:56:44;1.73;;;1.63;;
45936;SDS011;31649;46.510;6.498;2022-08-01T07:59:10;2.00;;;1.90;;
45936;SDS011;31649;46.510;6.498;2022-08-01T08:01:35;2.67;;;1.70;;
45936;SDS011;31649;46.510;6.498;2022-08-01T08:04:00;2.88;;;1.58;;
45936;SDS011;31649;46.510;6.498;2022-08-01T08:06:26;1.98;;;1.65;;
45936;SDS011;31649;46.510;6.498;2022-08-01T08:08:51;1.85;;;1.75;;
45936;SDS011;31649;46.510;6.498;2022-08-01T08:11:18;1.70;;;1.60;;
45936;SDS011;31649;46.510;6.498;2022-08-01T08:13:44;2.50;;;2.25;;
45936;SDS011;31649;46.510;6.498;2022-08-01T08:16:09;1.88;;;1.50;;
45936;SDS011;31649;46.510;6.498;2022-08-01T08:18:34;2.13;;;1.60;;
45936;SDS011;31649;46.510;6.498;2022-08-01T08:21:00;1.80;;;1.70;;
45936;SDS011;31649;46.510;6.498;2022-08-01T08:23:25;1.60;;;1.50;;
45936;SDS011;31649;46.510;6.498;2022-08-01T08:26:09;2.03;;;1.50;;
45936;SDS011;31649;46.510;6.498;2022-08-01T08:28:35;2.38;;;1.70;;
45936;SDS011;31649;46.510;6.498;2022-08-01T08:31:01;2.15;;;1.90;;
45936;SDS011;31649;46.510;6.498;2022-08-01T08:33:26;7.57;;;1.88;;
45936;SDS011;31649;46.510;6.498;2022-08-01T08:35:51;3.03;;;2.10;;
45936;SDS011;31649;46.510;6.498;2022-08-01T08:38:19;2.60;;;1.70;;
45936;SDS011;31649;46.510;6.498;2022-08-01T08:40:44;1.80;;;1.70;;
45936;SDS011;31649;46.510;6.498;2022-08-01T08:43:10;5.07;;;2.47;;
45936;SDS011;31649;46.510;6.498;2022-08-01T08:45:36;2.15;;;2.03;;
45936;SDS011;31649;46.510;6.498;2022-08-01T08:48:01;2.13;;;2.03;;
45936;SDS011;31649;46.510;6.498;2022-08-01T08:50:27;2.55;;;2.03;;
45936;SDS011;31649;46.510;6.498;2022-08-01T08:52:54;1.85;;;1.67;;
45936;SDS011;31649;46.510;6.498;2022-08-01T08:55:20;2.05;;;1.92;;
45936;SDS011;31649;46.510;6.498;2022-08-01T08:57:46;2.38;;;2.08;;
45936;SDS011;31649;46.510;6.498;2022-08-01T09:00:13;3.03;;;2.05;;
45936;SDS011;31649;46.510;6.498;2022-08-01T09:02:40;2.20;;;2.00;;
45936;SDS011;31649;46.510;6.498;2022-08-01T09:05:08;2.38;;;1.90;;
45936;SDS011;31649;46.510;6.498;2022-08-01T09:07:34;5.07;;;1.85;;
45936;SDS011;31649;46.510;6.498;2022-08-01T09:09:59;2.15;;;1.88;;
45936;SDS011;31649;46.510;6.498;2022-08-01T09:12:25;4.10;;;1.92;;
45936;SDS011;31649;46.510;6.498;2022-08-01T09:14:50;5.57;;;1.90;;
45936;SDS011;31649;46.510;6.498;2022-08-01T09:17:18;1.77;;;1.67;;
45936;SDS011;31649;46.510;6.498;2022-08-01T09:22:28;3.38;;;1.98;;
45936;SDS011;31649;46.510;6.498;2022-08-01T09:25:03;2.30;;;2.08;;
45936;SDS011;31649;46.510;6.498;2022-08-01T09:27:31;4.93;;;2.08;;
45936;SDS011;31649;46.510;6.498;2022-08-01T09:30:08;2.10;;;1.77;;
45936;SDS011;31649;46.510;6.498;2022-08-01T09:32:33;2.92;;;1.83;;
45936;SDS011;31649;46.510;6.498;2022-08-01T09:35:21;4.47;;;2.08;;
45936;SDS011;31649;46.510;6.498;2022-08-01T09:37:49;2.72;;;1.70;;
45936;SDS011;31649;46.510;6.498;2022-08-01T09:40:14;3.78;;;1.92;;
45936;SDS011;31649;46.510;6.498;2022-08-01T09:42:39;1.85;;;1.75;;
45936;SDS011;31649;46.510;6.498;2022-08-01T09:45:05;2.38;;;2.17;;
45936;SDS011;31649;46.510;6.498;2022-08-01T09:47:37;1.98;;;1.80;;
45936;SDS011;31649;46.510;6.498;2022-08-01T09:50:03;2.10;;;1.90;;
45936;SDS011;31649;46.510;6.498;2022-08-01T09:52:29;4.95;;;2.25;;
45936;SDS011;31649;46.510;6.498;2022-08-01T09:55:06;2.08;;;1.88;;
45936;SDS011;31649;46.510;6.498;2022-08-01T09:57:32;3.45;;;1.90;;
45936;SDS011;31649;46.510;6.498;2022-08-01T09:59:59;2.00;;;1.83;;
45936;SDS011;31649;46.510;6.498;2022-08-01T10:02:36;2.70;;;2.50;;
45936;SDS011;31649;46.510;6.498;2022-08-01T10:05:04;1.95;;;1.85;;
45936;SDS011;31649;46.510;6.498;2022-08-01T10:07:32;2.40;;;1.80;;
45936;SDS011;31649;46.510;6.498;2022-08-01T10:10:10;3.15;;;1.95;;
45936;SDS011;31649;46.510;6.498;2022-08-01T10:12:40;1.95;;;1.77;;
45936;SDS011;31649;46.510;6.498;2022-08-01T10:15:06;1.98;;;1.88;;
45936;SDS011;31649;46.510;6.498;2022-08-01T10:17:33;4.35;;;2.03;;
45936;SDS011;31649;46.510;6.498;2022-08-01T10:20:03;2.85;;;2.10;;
45936;SDS011;31649;46.510;6.498;2022-08-01T10:22:30;2.30;;;2.20;;
45936;SDS011;31649;46.510;6.498;2022-08-01T10:24:56;6.28;;;2.40;;
45936;SDS011;31649;46.510;6.498;2022-08-01T10:27:25;2.30;;;2.10;;
45936;SDS011;31649;46.510;6.498;2022-08-01T10:29:57;2.85;;;2.33;;
45936;SDS011;31649;46.510;6.498;2022-08-01T10:32:33;2.78;;;2.00;;
45936;SDS011;31649;46.510;6.498;2022-08-01T10:35:05;3.17;;;2.55;;
45936;SDS011;31649;46.510;6.498;2022-08-01T10:37:33;3.15;;;2.10;;
45936;SDS011;31649;46.510;6.498;2022-08-01T10:40:00;2.20;;;2.00;;
45936;SDS011;31649;46.510;6.498;2022-08-01T10:42:26;2.58;;;1.90;;
45936;SDS011;31649;46.510;6.498;2022-08-01T10:44:52;3.40;;;2.10;;
45936;SDS011;31649;46.510;6.498;2022-08-01T10:47:27;2.38;;;1.88;;
45936;SDS011;31649;46.510;6.498;2022-08-01T10:55:47;2.05;;;1.85;;
45936;SDS011;31649;46.510;6.498;2022-08-01T10:58:24;2.65;;;2.40;;
45936;SDS011;31649;46.510;6.498;2022-08-01T11:03:41;2.67;;;1.73;;
45936;SDS011;31649;46.510;6.498;2022-08-01T11:06:15;4.45;;;1.95;;
45936;SDS011;31649;46.510;6.498;2022-08-01T11:08:51;4.03;;;2.13;;
45936;SDS011;31649;46.510;6.498;2022-08-01T11:11:19;4.55;;;2.30;;
45936;SDS011;31649;46.510;6.498;2022-08-01T11:16:30;2.95;;;1.88;;
45936;SDS011;31649;46.510;6.498;2022-08-01T11:18:57;5.82;;;2.15;;
45936;SDS011;31649;46.510;6.498;2022-08-01T11:22:08;2.17;;;1.85;;
45936;SDS011;31649;46.510;6.498;2022-08-01T11:32:45;2.80;;;1.80;;
45936;SDS011;31649;46.510;6.498;2022-08-01T11:35:10;1.83;;;1.50;;
45936;SDS011;31649;46.510;6.498;2022-08-01T11:37:36;4.25;;;1.58;;
45936;SDS011;31649;46.510;6.498;2022-08-01T11:40:14;1.83;;;1.73;;
45936;SDS011;31649;46.510;6.498;2022-08-01T11:42:40;1.60;;;1.50;;
45936;SDS011;31649;46.510;6.498;2022-08-01T11:45:06;3.55;;;1.70;;
45936;SDS011;31649;46.510;6.498;2022-08-01T11:47:50;1.77;;;1.50;;
45936;SDS011;31649;46.510;6.498;2022-08-01T11:52:57;1.95;;;1.70;;
45936;SDS011;31649;46.510;6.498;2022-08-01T11:55:23;2.08;;;1.63;;
45936;SDS011;31649;46.510;6.498;2022-08-01T11:57:51;2.83;;;1.73;;
45936;SDS011;31649;46.510;6.498;2022-08-01T12:00:24;2.42;;;2.22;;
45936;SDS011;31649;46.510;6.498;2022-08-01T12:02:56;3.28;;;1.92;;
45936;SDS011;31649;46.510;6.498;2022-08-01T12:05:23;1.55;;;1.45;;
45936;SDS011;31649;46.510;6.498;2022-08-01T12:07:49;4.85;;;1.50;;
45936;SDS011;31649;46.510;6.498;2022-08-01T12:10:16;4.28;;;1.95;;
45936;SDS011;31649;46.510;6.498;2022-08-01T12:12:47;4.45;;;1.88;;
45936;SDS011;31649;46.510;6.498;2022-08-01T12:15:23;2.67;;;1.63;;
45936;SDS011;31649;46.510;6.498;2022-08-01T12:17:50;1.85;;;1.40;;
45936;SDS011;31649;46.510;6.498;2022-08-01T12:20:27;3.20;;;1.40;;
45936;SDS011;31649;46.510;6.498;2022-08-01T12:23:01;3.20;;;1.60;;
45936;SDS011;31649;46.510;6.498;2022-08-01T12:25:30;4.07;;;1.52;;
45936;SDS011;31649;46.510;6.498;2022-08-01T12:27:59;1.83;;;1.42;;
45936;SDS011;31649;46.510;6.498;2022-08-01T12:30:29;2.60;;;1.10;;
45936;SDS011;31649;46.510;6.498;2022-08-01T12:32:56;3.08;;;1.60;;
45936;SDS011;31649;46.510;6.498;2022-08-01T12:35:25;2.53;;;1.30;;
45936;SDS011;31649;46.510;6.498;2022-08-01T12:37:53;3.03;;;1.80;;
45936;SDS011;31649;46.510;6.498;2022-08-01T12:42:47;1.30;;;1.20;;
45936;SDS011;31649;46.510;6.498;2022-08-01T12:47:59;1.80;;;1.58;;
45936;SDS011;31649;46.510;6.498;2022-08-01T12:50:28;1.33;;;1.23;;
45936;SDS011;31649;46.510;6.498;2022-08-01T12:55:32;2.55;;;1.98;;
45936;SDS011;31649;46.510;6.498;2022-08-01T12:58:15;0.90;;;0.90;;
45936;SDS011;31649;46.510;6.498;2022-08-01T13:00:42;1.27;;;1.02;;
45936;SDS011;31649;46.510;6.498;2022-08-01T13:03:10;1.95;;;1.30;;
45936;SDS011;31649;46.510;6.498;2022-08-01T13:08:16;1.75;;;1.40;;
45936;SDS011;31649;46.510;6.498;2022-08-01T13:10:45;1.63;;;1.17;;
45936;SDS011;31649;46.510;6.498;2022-08-01T13:13:12;1.27;;;1.17;;
45936;SDS011;31649;46.510;6.498;2022-08-01T13:15:40;1.25;;;1.05;;
45936;SDS011;31649;46.510;6.498;2022-08-01T13:21:16;2.00;;;1.00;;
45936;SDS011;31649;46.510;6.498;2022-08-01T13:29:09;1.38;;;1.02;;
45936;SDS011;31649;46.510;6.498;2022-08-01T13:31:36;1.95;;;0.98;;
45936;SDS011;31649;46.510;6.498;2022-08-01T13:34:02;1.40;;;1.30;;
45936;SDS011;31649;46.510;6.498;2022-08-01T13:36:28;1.15;;;1.10;;
45936;SDS011;31649;46.510;6.498;2022-08-01T13:38:55;1.00;;;0.90;;
45936;SDS011;31649;46.510;6.498;2022-08-01T13:41:39;1.33;;;0.95;;
45936;SDS011;31649;46.510;6.498;2022-08-01T13:44:05;2.88;;;1.15;;
45936;SDS011;31649;46.510;6.498;2022-08-01T13:46:31;1.73;;;1.00;;
45936;SDS011;31649;46.510;6.498;2022-08-01T13:48:56;2.17;;;1.30;;
45936;SDS011;31649;46.510;6.498;2022-08-01T13:51:22;2.60;;;1.73;;
45936;SDS011;31649;46.510;6.498;2022-08-01T13:53:47;0.82;;;0.82;;
45936;SDS011;31649;46.510;6.498;2022-08-01T13:56:13;1.35;;;0.93;;
45936;SDS011;31649;46.510;6.498;2022-08-01T13:58:38;2.58;;;0.77;;
45936;SDS011;31649;46.510;6.498;2022-08-01T14:01:03;1.13;;;0.85;;
45936;SDS011;31649;46.510;6.498;2022-08-01T14:03:29;2.63;;;0.88;;
45936;SDS011;31649;46.510;6.498;2022-08-01T14:05:55;0.82;;;0.70;;
45936;SDS011;31649;46.510;6.498;2022-08-01T14:08:21;1.05;;;0.63;;
45936;SDS011;31649;46.510;6.498;2022-08-01T14:10:46;0.82;;;0.70;;
45936;SDS011;31649;46.510;6.498;2022-08-01T14:13:11;1.13;;;0.80;;
45936;SDS011;31649;46.510;6.498;2022-08-01T14:15:37;3.28;;;1.30;;
45936;SDS011;31649;46.510;6.498;2022-08-01T14:18:02;3.75;;;1.25;;
45936;SDS011;31649;46.510;6.498;2022-08-01T14:20:29;1.00;;;0.90;;
45936;SDS011;31649;46.510;6.498;2022-08-01T14:22:54;0.80;;;0.80;;
45936;SDS011;31649;46.510;6.498;2022-08-01T14:25:21;1.00;;;1.00;;
45936;SDS011;31649;46.510;6.498;2022-08-01T14:27:46;0.73;;;0.70;;
45936;SDS011;31649;46.510;6.498;2022-08-01T14:30:13;0.52;;;0.52;;
45936;SDS011;31649;46.510;6.498;2022-08-01T14:32:38;1.80;;;0.90;;
45936;SDS011;31649;46.510;6.498;2022-08-01T14:35:04;0.85;;;0.85;;
45936;SDS011;31649;46.510;6.498;2022-08-01T14:37:31;1.58;;;0.60;;
45936;SDS011;31649;46.510;6.498;2022-08-01T14:39:56;0.90;;;0.90;;
45936;SDS011;31649;46.510;6.498;2022-08-01T14:42:22;2.28;;;0.73;;
45936;SDS011;31649;46.510;6.498;2022-08-01T14:44:48;1.23;;;0.70;;
45936;SDS011;31649;46.510;6.498;2022-08-01T14:47:13;0.80;;;0.80;;
45936;SDS011;31649;46.510;6.498;2022-08-01T14:49:38;1.17;;;0.98;;
45936;SDS011;31649;46.510;6.498;2022-08-01T14:52:04;1.52;;;1.10;;
45936;SDS011;31649;46.510;6.498;2022-08-01T14:54:29;4.22;;;1.73;;
45936;SDS011;31649;46.510;6.498;2022-08-01T14:56:55;1.42;;;0.60;;
45936;SDS011;31649;46.510;6.498;2022-08-01T14:59:20;0.70;;;0.70;;
45936;SDS011;31649;46.510;6.498;2022-08-01T15:01:46;0.95;;;0.60;;
45936;SDS011;31649;46.510;6.498;2022-08-01T15:04:11;2.05;;;0.75;;
45936;SDS011;31649;46.510;6.498;2022-08-01T15:06:36;1.08;;;0.70;;
45936;SDS011;31649;46.510;6.498;2022-08-01T15:09:02;0.75;;;0.75;;
45936;SDS011;31649;46.510;6.498;2022-08-01T15:11:28;0.77;;;0.70;;
45936;SDS011;31649;46.510;6.498;2022-08-01T15:13:53;2.40;;;1.00;;
45936;SDS011;31649;46.510;6.498;2022-08-01T15:16:42;1.20;;;1.00;;
45936;SDS011;31649;46.510;6.498;2022-08-01T15:19:07;1.20;;;0.90;;
45936;SDS011;31649;46.510;6.498;2022-08-01T15:21:33;2.90;;;0.77;;
45936;SDS011;31649;46.510;6.498;2022-08-01T15:23:58;1.13;;;0.70;;
45936;SDS011;31649;46.510;6.498;2022-08-01T15:26:23;1.88;;;0.65;;
45936;SDS011;31649;46.510;6.498;2022-08-01T15:28:49;0.95;;;0.80;;
45936;SDS011;31649;46.510;6.498;2022-08-01T15:31:14;1.05;;;0.80;;
45936;SDS011;31649;46.510;6.498;2022-08-01T15:33:40;1.13;;;0.77;;
45936;SDS011;31649;46.510;6.498;2022-08-01T15:36:05;1.20;;;0.75;;
45936;SDS011;31649;46.510;6.498;2022-08-01T15:38:30;0.93;;;0.63;;
45936;SDS011;31649;46.510;6.498;2022-08-01T15:40:56;0.73;;;0.73;;
45936;SDS011;31649;46.510;6.498;2022-08-01T15:43:21;2.05;;;1.10;;
45936;SDS011;31649;46.510;6.498;2022-08-01T15:45:47;0.98;;;0.88;;
45936;SDS011;31649;46.510;6.498;2022-08-01T15:48:12;5.13;;;3.70;;
45936;SDS011;31649;46.510;6.498;2022-08-01T15:50:38;1.02;;;0.98;;
45936;SDS011;31649;46.510;6.498;2022-08-01T15:53:03;3.90;;;1.33;;